Accueil
METAR-TAF:

METAR-TAF

Aéroports :

Base aérienne de Büchel

Büchel, Allemagne

latitude: 50-10N, longitude: 007-04E, altitude: 478 m

Observation

Le bulletin a été fait il y a 11 minutes, à 10:20 UTC
Vent 7 kt de nord/nord-est
Température 11°C
Humidité 71%
Pression 1030 hPa
Visibilité 10 km ou plus

METAR: ETSB 201020Z AUTO 03007KT 9999 // ////// 11/06 Q1030 ///

Heure: 12:31 (10:31 UTC)

Prévision

Le bulletin a été fait il y a 22 heures et 58 minutes, à 11:33 UTC
Prévision valable du 19 à 11 UTC au 19 à 20 UTC
Vent 6 kt de est
Visibilité: 6000 m
Nuages fragmentés à une hauteur de 1000 ft
Evoluant progressivement
du 19 à 12 UTC au 19 à 14 UTC
Vent 6 kt de est/nord-est
Visibilité: 1133 m
Nuages épars à une hauteur de 1000 ft

TAF: ETSB 191133Z 1911/1920 08006KT 6000 NSW BKN010 BECMG 1912/1914 06006KT 9000 NSW SCT010 CANCEL 1133 BY ETGL

Observations et prévisions météorologiques de plus de 4000 aéroports (messages METAR et TAF).

Les stations disponibles sont représentées par des disques jaunes et rouges sur la carte.

Passer la souris dessus pour voir le nom de la station.

Cliquer dessus pour voir les observations et prévisions météorologiques.

Pour changer de carte: cliquez sur les boutons verts avec une croix noire pour zoomer, sur le bouton vert avec un tiret pour effectuer un zoom arrière, ou sur les flèches vertes pour les cartes adjacentes.


METAR-TAF: